航空気象通報

ウインドサーファーのための航空気象通報による風予報です。

9/15-9/17の航空気象通報

2017年09月16日 23時55分35秒 | TAF

羽田空港
TAF RJTT 161110Z 1612/1718 05012KT 8000 -RA FEW010 BKN030
TEMPO 1615/1621 4000 -RA BR
TEMPO 1621/1706 3000 SHRA BR FEW005 BKN008
BECMG 1709/1712 16012KT
BECMG 1712/1715 18028G38KT
TEMPO 1715/1718 19038G52KT
日本時間16日21-17日18時:050度から12ノットの風
18-21時:風が変化
21時:160度から12ノットの風
21-24時:風が変化
18日00-03時:180度から28ノット、突風38ノット
但し、18日00-03時の間:時々190度から38ノット、突風52ノット


静岡空港
TAF RJNS 161108Z 1612/1718 05012KT 8000 -RA FEW005 BKN012
TEMPO 1612/1620 4000 RA BR FEW003 BKN005
BECMG 1709/1712 18018KT
TEMPO 1709/1715 3000 TSRA BR FEW003 BKN005 FEW020CB
BECMG 1712/1715 24026G38KT
日本時間16日21時-17日18時:050度から12ノットの風
18-21時:風が変化
21時:180度から18ノットの風
21-24時:風が変化
18日00-03時:240度から26ノット、突風38ノット

但し、17日18-24時の間:ときどき

福岡空港
TAF RJFF 161107Z 1612/1718 05006KT 6000 -SHRA FEW008 SCT015 BKN030
TEMPO 1615/1618 3000 SHRA BR
BECMG 1621/1623 03022G32KT
TEMPO 1621/1700 3000 SHRA BR
TEMPO 1700/1706 1500 +SHRA BR FEW005 BKN008 BKN015
BECMG 1703/1706 35030G45KT
BECMG 1709/1712 32012KT
日本時間16日21時-17日06時:050度から6ノットの風
06-08時:風が変化
08-12時:030度から22ノット、突風32ノット
12-15時:風が変化
15-18時:350度から30ノット、突風45ノット
18-21時:風が変化
21時-18日03時:320度から12ノット


那覇空港
TAF ROAH 161107Z 1612/1718 29023KT 9999 FEW015 BKN025
TEMPO 1612/1615 28026G36KT
BECMG 1709/1712 32008KT
日本時間16日21時-17日18時:290度から23ノットの風
但し、16日21-24時の間:時々280度から26ノット、突風36ノット
18-21時:風が変化
21時-18日03時:320度から8ノットの風


石垣空港
TAF ROIG 161109Z 1612/1718 33010KT 9999 FEW020 SCT030
日本時間16日21時-18日03時:330度から10ノットの風


マウイのカフルイ空港
PHOG 161126Z 1612/1712 08007KT P6SM SCT060
FM162000 06020G28KT P6SM FEW035 SCT060
FM170600 06011KT P6SM FEW050 AMD LTD TO VIS AND WIND TIL 161600
ハワイ時間16日02-10時:080度から7ノットの風
10-20時:060度から20ノット、突風28ノット
20時-17日02時:060度から11ノットの風


サイパン空港
TAF PGSN 161134Z 1612/1712 14010KT P6SM VCSH SCT014 SCT040 OVC130
マリアナ時間16日22時-17日22時:140度から10ノットの風
ジャンル:
ウェブログ
コメント   この記事についてブログを書く
この記事をはてなブックマークに追加
« 9/15-9/17の航空気象通報 | トップ | 9/18-9/20の航空気象通報 »
最近の画像もっと見る

コメントを投稿

ブログ作成者から承認されるまでコメントは反映されません。

TAF」カテゴリの最新記事

トラックバック

この記事のトラックバック  Ping-URL
ブログ作成者から承認されるまでトラックバックは反映されません。
  • 30日以上前の記事に対するトラックバックは受け取らないよう設定されております。
  • 送信元の記事内容が半角英数のみのトラックバックは受け取らないよう設定されております。
  • このブログへのリンクがない記事からのトラックバックは受け取らないよう設定されております。
  • ※ブログ管理者のみ、編集画面で設定の変更が可能です。